sensor_id;sensor_type;location;lat;lon;timestamp;temperature;humidity
4755;DHT22;2391;47.212;7.542;2023-01-06T00:00:21;10.90;99.90
4755;DHT22;2391;47.212;7.542;2023-01-06T00:02:47;10.90;99.90
4755;DHT22;2391;47.212;7.542;2023-01-06T00:05:13;10.80;99.90
4755;DHT22;2391;47.212;7.542;2023-01-06T00:07:39;10.80;99.90
4755;DHT22;2391;47.212;7.542;2023-01-06T00:10:06;10.70;99.90
4755;DHT22;2391;47.212;7.542;2023-01-06T00:12:33;10.70;99.90
4755;DHT22;2391;47.212;7.542;2023-01-06T00:14:58;10.70;99.90
4755;DHT22;2391;47.212;7.542;2023-01-06T00:17:24;10.60;99.90
4755;DHT22;2391;47.212;7.542;2023-01-06T00:19:50;10.70;99.90
4755;DHT22;2391;47.212;7.542;2023-01-06T00:22:16;10.70;99.90
4755;DHT22;2391;47.212;7.542;2023-01-06T00:24:42;10.70;99.90
4755;DHT22;2391;47.212;7.542;2023-01-06T00:27:08;10.70;99.90
4755;DHT22;2391;47.212;7.542;2023-01-06T00:29:34;10.70;99.90
4755;DHT22;2391;47.212;7.542;2023-01-06T00:32:01;10.60;99.90
4755;DHT22;2391;47.212;7.542;2023-01-06T00:34:28;10.60;99.90
4755;DHT22;2391;47.212;7.542;2023-01-06T00:36:54;10.60;99.90
4755;DHT22;2391;47.212;7.542;2023-01-06T00:39:20;10.60;99.90
4755;DHT22;2391;47.212;7.542;2023-01-06T00:41:46;10.70;99.90
4755;DHT22;2391;47.212;7.542;2023-01-06T00:44:33;10.70;99.90
4755;DHT22;2391;47.212;7.542;2023-01-06T00:47:00;10.70;99.90
4755;DHT22;2391;47.212;7.542;2023-01-06T00:49:26;10.70;99.90
4755;DHT22;2391;47.212;7.542;2023-01-06T00:51:53;10.70;99.90
4755;DHT22;2391;47.212;7.542;2023-01-06T00:54:19;10.80;99.90
4755;DHT22;2391;47.212;7.542;2023-01-06T00:56:48;10.80;99.90
4755;DHT22;2391;47.212;7.542;2023-01-06T00:59:17;10.80;99.90
4755;DHT22;2391;47.212;7.542;2023-01-06T01:01:45;10.80;99.90
4755;DHT22;2391;47.212;7.542;2023-01-06T01:04:12;10.80;99.90
4755;DHT22;2391;47.212;7.542;2023-01-06T01:06:40;10.80;99.90
4755;DHT22;2391;47.212;7.542;2023-01-06T01:09:06;10.80;99.90
4755;DHT22;2391;47.212;7.542;2023-01-06T01:11:33;10.70;99.90
4755;DHT22;2391;47.212;7.542;2023-01-06T01:14:18;10.60;99.90
4755;DHT22;2391;47.212;7.542;2023-01-06T01:16:45;10.40;99.90
4755;DHT22;2391;47.212;7.542;2023-01-06T01:19:11;10.30;99.90
4755;DHT22;2391;47.212;7.542;2023-01-06T01:21:37;10.20;99.90
4755;DHT22;2391;47.212;7.542;2023-01-06T01:24:04;10.20;99.90
4755;DHT22;2391;47.212;7.542;2023-01-06T01:26:30;10.20;99.90
4755;DHT22;2391;47.212;7.542;2023-01-06T01:28:55;10.10;99.90
4755;DHT22;2391;47.212;7.542;2023-01-06T01:31:21;10.20;99.90
4755;DHT22;2391;47.212;7.542;2023-01-06T01:33:48;10.10;99.90
4755;DHT22;2391;47.212;7.542;2023-01-06T01:36:15;10.20;99.90
4755;DHT22;2391;47.212;7.542;2023-01-06T01:38:41;10.10;99.90
4755;DHT22;2391;47.212;7.542;2023-01-06T01:41:12;10.10;99.90
4755;DHT22;2391;47.212;7.542;2023-01-06T01:43:47;10.00;99.90
4755;DHT22;2391;47.212;7.542;2023-01-06T01:46:16;9.80;99.90
4755;DHT22;2391;47.212;7.542;2023-01-06T01:48:43;9.60;99.90
4755;DHT22;2391;47.212;7.542;2023-01-06T01:51:12;9.50;99.90
4755;DHT22;2391;47.212;7.542;2023-01-06T01:53:44;9.40;99.90
4755;DHT22;2391;47.212;7.542;2023-01-06T01:56:23;9.40;99.90
4755;DHT22;2391;47.212;7.542;2023-01-06T01:58:56;9.30;99.90
4755;DHT22;2391;47.212;7.542;2023-01-06T02:01:22;9.30;99.90
4755;DHT22;2391;47.212;7.542;2023-01-06T02:03:48;9.40;99.90
4755;DHT22;2391;47.212;7.542;2023-01-06T02:06:17;9.40;99.90
4755;DHT22;2391;47.212;7.542;2023-01-06T02:09:32;9.40;99.90
4755;DHT22;2391;47.212;7.542;2023-01-06T02:11:13;9.40;99.90
4755;DHT22;2391;47.212;7.542;2023-01-06T02:13:41;9.50;99.90
4755;DHT22;2391;47.212;7.542;2023-01-06T02:16:21;9.50;99.90
4755;DHT22;2391;47.212;7.542;2023-01-06T02:40:26;9.80;99.90
4755;DHT22;2391;47.212;7.542;2023-01-06T02:51:07;9.80;99.90
4755;DHT22;2391;47.212;7.542;2023-01-06T02:56:31;9.90;99.90
4755;DHT22;2391;47.212;7.542;2023-01-06T02:59:09;9.90;99.90
4755;DHT22;2391;47.212;7.542;2023-01-06T03:01:39;9.90;99.90
4755;DHT22;2391;47.212;7.542;2023-01-06T03:04:17;9.90;99.90
4755;DHT22;2391;47.212;7.542;2023-01-06T03:06:38;9.90;99.90
4755;DHT22;2391;47.212;7.542;2023-01-06T03:09:07;9.80;99.90
4755;DHT22;2391;47.212;7.542;2023-01-06T03:11:33;9.80;99.90
4755;DHT22;2391;47.212;7.542;2023-01-06T03:14:29;9.80;99.90
4755;DHT22;2391;47.212;7.542;2023-01-06T03:16:55;9.80;99.90
4755;DHT22;2391;47.212;7.542;2023-01-06T03:19:21;9.80;99.90
4755;DHT22;2391;47.212;7.542;2023-01-06T03:21:48;9.80;99.90
4755;DHT22;2391;47.212;7.542;2023-01-06T03:24:15;9.80;99.90
4755;DHT22;2391;47.212;7.542;2023-01-06T03:26:44;9.80;99.90
4755;DHT22;2391;47.212;7.542;2023-01-06T03:29:14;9.80;99.90
4755;DHT22;2391;47.212;7.542;2023-01-06T03:45:55;9.70;99.90
4755;DHT22;2391;47.212;7.542;2023-01-06T03:48:27;9.60;99.90
4755;DHT22;2391;47.212;7.542;2023-01-06T03:51:15;9.70;99.90
4755;DHT22;2391;47.212;7.542;2023-01-06T03:53:38;9.70;99.90
4755;DHT22;2391;47.212;7.542;2023-01-06T03:58:50;9.70;99.90
4755;DHT22;2391;47.212;7.542;2023-01-06T04:01:17;9.60;99.90
4755;DHT22;2391;47.212;7.542;2023-01-06T04:03:45;9.50;99.90
4755;DHT22;2391;47.212;7.542;2023-01-06T04:06:12;9.50;99.90
4755;DHT22;2391;47.212;7.542;2023-01-06T04:08:37;9.60;99.90
4755;DHT22;2391;47.212;7.542;2023-01-06T04:11:03;9.60;99.90
4755;DHT22;2391;47.212;7.542;2023-01-06T04:13:29;9.70;99.90
4755;DHT22;2391;47.212;7.542;2023-01-06T04:15:55;9.70;99.90
4755;DHT22;2391;47.212;7.542;2023-01-06T04:18:21;9.70;99.90
4755;DHT22;2391;47.212;7.542;2023-01-06T04:20:47;9.70;99.90
4755;DHT22;2391;47.212;7.542;2023-01-06T04:23:12;9.70;99.90
4755;DHT22;2391;47.212;7.542;2023-01-06T04:25:38;9.60;99.90
4755;DHT22;2391;47.212;7.542;2023-01-06T04:28:04;9.60;99.90
4755;DHT22;2391;47.212;7.542;2023-01-06T04:30:30;9.60;99.90
4755;DHT22;2391;47.212;7.542;2023-01-06T04:32:55;9.60;99.90
4755;DHT22;2391;47.212;7.542;2023-01-06T04:35:21;9.70;99.90
4755;DHT22;2391;47.212;7.542;2023-01-06T04:37:47;9.60;99.90
4755;DHT22;2391;47.212;7.542;2023-01-06T04:40:13;9.70;99.90
4755;DHT22;2391;47.212;7.542;2023-01-06T04:42:39;9.70;99.90
4755;DHT22;2391;47.212;7.542;2023-01-06T04:45:23;9.70;99.90
4755;DHT22;2391;47.212;7.542;2023-01-06T04:47:49;9.70;99.90
4755;DHT22;2391;47.212;7.542;2023-01-06T04:50:15;9.70;99.90
4755;DHT22;2391;47.212;7.542;2023-01-06T04:52:41;9.80;99.90
4755;DHT22;2391;47.212;7.542;2023-01-06T04:55:07;9.70;99.90
4755;DHT22;2391;47.212;7.542;2023-01-06T04:57:34;9.70;99.90
4755;DHT22;2391;47.212;7.542;2023-01-06T04:59:59;9.60;99.90
4755;DHT22;2391;47.212;7.542;2023-01-06T05:02:25;9.70;99.90
4755;DHT22;2391;47.212;7.542;2023-01-06T05:04:51;9.70;99.90
4755;DHT22;2391;47.212;7.542;2023-01-06T05:07:17;9.70;99.90
4755;DHT22;2391;47.212;7.542;2023-01-06T05:09:42;9.70;99.90
4755;DHT22;2391;47.212;7.542;2023-01-06T05:12:08;9.70;99.90
4755;DHT22;2391;47.212;7.542;2023-01-06T05:14:34;9.70;99.90
4755;DHT22;2391;47.212;7.542;2023-01-06T05:17:00;9.70;99.90
4755;DHT22;2391;47.212;7.542;2023-01-06T05:19:26;9.60;99.90
4755;DHT22;2391;47.212;7.542;2023-01-06T05:21:52;9.60;99.90
4755;DHT22;2391;47.212;7.542;2023-01-06T05:24:17;9.60;99.90
4755;DHT22;2391;47.212;7.542;2023-01-06T05:26:43;9.50;99.90
4755;DHT22;2391;47.212;7.542;2023-01-06T05:29:11;9.40;99.90
4755;DHT22;2391;47.212;7.542;2023-01-06T05:31:38;9.10;99.90
4755;DHT22;2391;47.212;7.542;2023-01-06T05:34:04;8.90;99.90
4755;DHT22;2391;47.212;7.542;2023-01-06T05:36:30;8.90;99.90
4755;DHT22;2391;47.212;7.542;2023-01-06T05:38:55;8.90;99.90
4755;DHT22;2391;47.212;7.542;2023-01-06T05:41:21;9.00;99.90
4755;DHT22;2391;47.212;7.542;2023-01-06T05:43:47;9.10;99.90
4755;DHT22;2391;47.212;7.542;2023-01-06T05:46:13;9.20;99.90
4755;DHT22;2391;47.212;7.542;2023-01-06T05:48:39;9.30;99.90
4755;DHT22;2391;47.212;7.542;2023-01-06T05:51:07;9.30;99.90
4755;DHT22;2391;47.212;7.542;2023-01-06T05:53:36;9.40;99.90
4755;DHT22;2391;47.212;7.542;2023-01-06T05:56:08;9.40;99.90
4755;DHT22;2391;47.212;7.542;2023-01-06T05:58:30;9.50;99.90
4755;DHT22;2391;47.212;7.542;2023-01-06T06:01:00;9.50;99.90
4755;DHT22;2391;47.212;7.542;2023-01-06T06:03:25;9.60;99.90
4755;DHT22;2391;47.212;7.542;2023-01-06T06:05:51;9.70;99.90
4755;DHT22;2391;47.212;7.542;2023-01-06T06:08:18;9.70;99.90
4755;DHT22;2391;47.212;7.542;2023-01-06T06:10:44;9.80;99.90
4755;DHT22;2391;47.212;7.542;2023-01-06T06:13:12;9.80;99.90
4755;DHT22;2391;47.212;7.542;2023-01-06T06:15:38;9.80;99.90
4755;DHT22;2391;47.212;7.542;2023-01-06T06:18:04;9.80;99.90
4755;DHT22;2391;47.212;7.542;2023-01-06T06:20:30;9.80;99.90
4755;DHT22;2391;47.212;7.542;2023-01-06T06:22:56;9.80;99.90
4755;DHT22;2391;47.212;7.542;2023-01-06T06:25:21;9.70;99.90
4755;DHT22;2391;47.212;7.542;2023-01-06T06:27:47;9.80;99.90
4755;DHT22;2391;47.212;7.542;2023-01-06T06:30:13;9.80;99.90
4755;DHT22;2391;47.212;7.542;2023-01-06T06:32:40;9.80;99.90
4755;DHT22;2391;47.212;7.542;2023-01-06T06:35:07;9.80;99.90
4755;DHT22;2391;47.212;7.542;2023-01-06T06:37:32;9.80;99.90
4755;DHT22;2391;47.212;7.542;2023-01-06T06:39:58;9.80;99.90
4755;DHT22;2391;47.212;7.542;2023-01-06T06:42:24;9.80;99.90
4755;DHT22;2391;47.212;7.542;2023-01-06T06:44:50;9.80;99.90
4755;DHT22;2391;47.212;7.542;2023-01-06T06:47:15;9.80;99.90
4755;DHT22;2391;47.212;7.542;2023-01-06T06:49:41;9.80;99.90
4755;DHT22;2391;47.212;7.542;2023-01-06T06:52:07;9.80;99.90
4755;DHT22;2391;47.212;7.542;2023-01-06T06:54:32;9.80;99.90
4755;DHT22;2391;47.212;7.542;2023-01-06T06:56:58;9.90;99.90
4755;DHT22;2391;47.212;7.542;2023-01-06T06:59:24;9.80;99.90
4755;DHT22;2391;47.212;7.542;2023-01-06T07:01:50;9.80;99.90
4755;DHT22;2391;47.212;7.542;2023-01-06T07:04:15;9.80;99.90
4755;DHT22;2391;47.212;7.542;2023-01-06T07:06:41;9.80;99.90
4755;DHT22;2391;47.212;7.542;2023-01-06T07:09:07;9.80;99.90
4755;DHT22;2391;47.212;7.542;2023-01-06T07:11:32;9.80;99.90
4755;DHT22;2391;47.212;7.542;2023-01-06T07:13:58;9.80;99.90
4755;DHT22;2391;47.212;7.542;2023-01-06T07:16:24;9.90;99.90
4755;DHT22;2391;47.212;7.542;2023-01-06T07:18:52;9.90;99.90
4755;DHT22;2391;47.212;7.542;2023-01-06T07:21:18;9.90;99.90
4755;DHT22;2391;47.212;7.542;2023-01-06T07:23:44;9.90;99.90
4755;DHT22;2391;47.212;7.542;2023-01-06T07:26:09;9.90;99.90
4755;DHT22;2391;47.212;7.542;2023-01-06T07:28:36;9.80;99.90
4755;DHT22;2391;47.212;7.542;2023-01-06T07:31:02;9.80;99.90
4755;DHT22;2391;47.212;7.542;2023-01-06T07:33:28;9.80;99.90
4755;DHT22;2391;47.212;7.542;2023-01-06T07:35:55;9.80;99.90
4755;DHT22;2391;47.212;7.542;2023-01-06T07:38:22;9.90;99.90
4755;DHT22;2391;47.212;7.542;2023-01-06T07:40:49;9.90;99.90
4755;DHT22;2391;47.212;7.542;2023-01-06T07:43:15;9.90;99.90
4755;DHT22;2391;47.212;7.542;2023-01-06T07:45:41;9.90;99.90
4755;DHT22;2391;47.212;7.542;2023-01-06T07:48:08;9.90;99.90
4755;DHT22;2391;47.212;7.542;2023-01-06T07:50:34;9.90;99.90
4755;DHT22;2391;47.212;7.542;2023-01-06T07:53:01;9.90;99.90
4755;DHT22;2391;47.212;7.542;2023-01-06T07:55:27;9.80;99.90
4755;DHT22;2391;47.212;7.542;2023-01-06T07:57:53;9.80;99.90
4755;DHT22;2391;47.212;7.542;2023-01-06T08:00:22;9.90;99.90
4755;DHT22;2391;47.212;7.542;2023-01-06T08:02:48;9.90;99.90
4755;DHT22;2391;47.212;7.542;2023-01-06T08:05:14;9.90;99.90
4755;DHT22;2391;47.212;7.542;2023-01-06T08:07:40;9.90;99.90
4755;DHT22;2391;47.212;7.542;2023-01-06T08:10:06;9.90;99.90
4755;DHT22;2391;47.212;7.542;2023-01-06T08:12:32;10.00;99.90
4755;DHT22;2391;47.212;7.542;2023-01-06T08:14:57;10.00;99.90
4755;DHT22;2391;47.212;7.542;2023-01-06T08:17:23;10.00;99.90
4755;DHT22;2391;47.212;7.542;2023-01-06T08:19:49;10.00;99.90
4755;DHT22;2391;47.212;7.542;2023-01-06T08:22:14;10.00;99.90
4755;DHT22;2391;47.212;7.542;2023-01-06T08:24:40;10.00;99.90
4755;DHT22;2391;47.212;7.542;2023-01-06T08:27:06;9.90;99.90
4755;DHT22;2391;47.212;7.542;2023-01-06T08:29:32;9.90;99.90
4755;DHT22;2391;47.212;7.542;2023-01-06T08:31:58;9.80;99.90
4755;DHT22;2391;47.212;7.542;2023-01-06T08:34:24;9.70;99.90
4755;DHT22;2391;47.212;7.542;2023-01-06T08:36:49;9.60;99.90
4755;DHT22;2391;47.212;7.542;2023-01-06T08:39:17;9.50;99.90
4755;DHT22;2391;47.212;7.542;2023-01-06T08:41:43;9.50;99.90
4755;DHT22;2391;47.212;7.542;2023-01-06T08:44:11;9.50;99.90
4755;DHT22;2391;47.212;7.542;2023-01-06T08:46:37;9.50;99.90
4755;DHT22;2391;47.212;7.542;2023-01-06T08:49:03;9.60;99.90
4755;DHT22;2391;47.212;7.542;2023-01-06T08:51:29;9.60;99.90
4755;DHT22;2391;47.212;7.542;2023-01-06T08:53:55;9.60;99.90
4755;DHT22;2391;47.212;7.542;2023-01-06T08:56:28;9.70;99.90
4755;DHT22;2391;47.212;7.542;2023-01-06T08:58:55;9.70;99.90
4755;DHT22;2391;47.212;7.542;2023-01-06T09:01:25;9.70;99.90
4755;DHT22;2391;47.212;7.542;2023-01-06T09:03:52;9.70;99.90
4755;DHT22;2391;47.212;7.542;2023-01-06T09:06:18;9.70;99.90
4755;DHT22;2391;47.212;7.542;2023-01-06T09:08:46;9.70;99.90
4755;DHT22;2391;47.212;7.542;2023-01-06T09:11:13;9.70;99.90
4755;DHT22;2391;47.212;7.542;2023-01-06T09:13:40;9.70;99.90
4755;DHT22;2391;47.212;7.542;2023-01-06T09:29:14;10.00;99.90
4755;DHT22;2391;47.212;7.542;2023-01-06T09:31:40;10.20;99.90
4755;DHT22;2391;47.212;7.542;2023-01-06T09:34:06;10.30;99.90
4755;DHT22;2391;47.212;7.542;2023-01-06T09:36:31;10.30;99.90
4755;DHT22;2391;47.212;7.542;2023-01-06T09:38:59;10.20;99.90
4755;DHT22;2391;47.212;7.542;2023-01-06T09:41:47;10.20;99.90
4755;DHT22;2391;47.212;7.542;2023-01-06T09:44:14;10.10;99.90
4755;DHT22;2391;47.212;7.542;2023-01-06T09:46:43;10.10;99.90
4755;DHT22;2391;47.212;7.542;2023-01-06T09:51:58;10.10;99.90
4755;DHT22;2391;47.212;7.542;2023-01-06T09:54:32;10.10;99.90
4755;DHT22;2391;47.212;7.542;2023-01-06T09:57:09;10.10;99.90
4755;DHT22;2391;47.212;7.542;2023-01-06T09:59:38;10.10;99.90
4755;DHT22;2391;47.212;7.542;2023-01-06T10:02:07;10.10;99.90
4755;DHT22;2391;47.212;7.542;2023-01-06T10:04:32;10.10;99.90
4755;DHT22;2391;47.212;7.542;2023-01-06T10:07:20;10.10;99.90
4755;DHT22;2391;47.212;7.542;2023-01-06T10:12:50;10.10;99.90
4755;DHT22;2391;47.212;7.542;2023-01-06T10:15:29;10.00;99.90
4755;DHT22;2391;47.212;7.542;2023-01-06T10:26:31;9.90;99.90
4755;DHT22;2391;47.212;7.542;2023-01-06T10:29:13;9.80;99.90
4755;DHT22;2391;47.212;7.542;2023-01-06T10:31:38;9.70;99.90
4755;DHT22;2391;47.212;7.542;2023-01-06T10:36:47;9.70;99.90
4755;DHT22;2391;47.212;7.542;2023-01-06T10:39:19;9.70;99.90
4755;DHT22;2391;47.212;7.542;2023-01-06T10:44:23;9.70;99.90
4755;DHT22;2391;47.212;7.542;2023-01-06T10:46:49;9.70;99.90
4755;DHT22;2391;47.212;7.542;2023-01-06T10:49:17;9.70;99.90
4755;DHT22;2391;47.212;7.542;2023-01-06T10:51:49;9.80;99.90
4755;DHT22;2391;47.212;7.542;2023-01-06T10:54:18;9.80;99.90
4755;DHT22;2391;47.212;7.542;2023-01-06T10:56:50;9.80;99.90
4755;DHT22;2391;47.212;7.542;2023-01-06T10:59:16;9.80;99.90
4755;DHT22;2391;47.212;7.542;2023-01-06T11:01:50;9.90;99.90
4755;DHT22;2391;47.212;7.542;2023-01-06T11:04:17;9.90;99.90
4755;DHT22;2391;47.212;7.542;2023-01-06T11:06:56;9.90;99.90
4755;DHT22;2391;47.212;7.542;2023-01-06T11:09:31;9.90;99.90
4755;DHT22;2391;47.212;7.542;2023-01-06T11:12:07;9.90;99.90
4755;DHT22;2391;47.212;7.542;2023-01-06T11:14:31;9.90;99.90
4755;DHT22;2391;47.212;7.542;2023-01-06T11:17:06;9.90;99.90
4755;DHT22;2391;47.212;7.542;2023-01-06T11:19:43;9.90;99.90
4755;DHT22;2391;47.212;7.542;2023-01-06T11:22:52;9.80;99.90
4755;DHT22;2391;47.212;7.542;2023-01-06T11:24:47;9.80;99.90
4755;DHT22;2391;47.212;7.542;2023-01-06T11:27:15;9.70;99.90
4755;DHT22;2391;47.212;7.542;2023-01-06T11:29:41;9.70;99.90
4755;DHT22;2391;47.212;7.542;2023-01-06T11:32:15;9.80;99.90
4755;DHT22;2391;47.212;7.542;2023-01-06T11:37:30;9.80;99.90
4755;DHT22;2391;47.212;7.542;2023-01-06T11:39:57;9.80;99.90
4755;DHT22;2391;47.212;7.542;2023-01-06T11:42:23;9.70;99.90
4755;DHT22;2391;47.212;7.542;2023-01-06T11:44:52;9.70;99.90
4755;DHT22;2391;47.212;7.542;2023-01-06T11:47:23;9.70;99.90
4755;DHT22;2391;47.212;7.542;2023-01-06T11:49:56;9.70;99.90
4755;DHT22;2391;47.212;7.542;2023-01-06T11:52:28;9.70;99.90
4755;DHT22;2391;47.212;7.542;2023-01-06T11:57:55;9.70;99.90
4755;DHT22;2391;47.212;7.542;2023-01-06T12:11:27;9.80;99.90
4755;DHT22;2391;47.212;7.542;2023-01-06T12:13:52;9.80;99.90
4755;DHT22;2391;47.212;7.542;2023-01-06T12:16:41;9.70;99.90
4755;DHT22;2391;47.212;7.542;2023-01-06T12:19:12;9.80;99.90
4755;DHT22;2391;47.212;7.542;2023-01-06T12:21:34;9.80;99.90
4755;DHT22;2391;47.212;7.542;2023-01-06T12:24:03;9.80;99.90
4755;DHT22;2391;47.212;7.542;2023-01-06T12:26:30;9.90;99.90
4755;DHT22;2391;47.212;7.542;2023-01-06T12:28:57;9.90;99.90
4755;DHT22;2391;47.212;7.542;2023-01-06T12:31:42;10.00;99.90
4755;DHT22;2391;47.212;7.542;2023-01-06T12:34:30;10.00;99.90
4755;DHT22;2391;47.212;7.542;2023-01-06T12:36:49;10.00;99.90
4755;DHT22;2391;47.212;7.542;2023-01-06T12:39:18;9.90;99.90
4755;DHT22;2391;47.212;7.542;2023-01-06T12:41:53;10.00;99.90
4755;DHT22;2391;47.212;7.542;2023-01-06T12:47:52;10.00;99.90
4755;DHT22;2391;47.212;7.542;2023-01-06T13:09:30;9.80;99.90
4755;DHT22;2391;47.212;7.542;2023-01-06T13:12:18;9.80;99.90
4755;DHT22;2391;47.212;7.542;2023-01-06T13:20:29;10.00;99.90
4755;DHT22;2391;47.212;7.542;2023-01-06T13:23:09;10.10;99.90
4755;DHT22;2391;47.212;7.542;2023-01-06T13:33:56;10.10;99.90
4755;DHT22;2391;47.212;7.542;2023-01-06T13:36:39;10.00;99.90
4755;DHT22;2391;47.212;7.542;2023-01-06T13:41:35;10.10;99.90
4755;DHT22;2391;47.212;7.542;2023-01-06T13:44:03;10.10;99.90
4755;DHT22;2391;47.212;7.542;2023-01-06T13:46:31;10.10;99.90
4755;DHT22;2391;47.212;7.542;2023-01-06T13:49:02;10.10;99.90
4755;DHT22;2391;47.212;7.542;2023-01-06T13:51:31;10.10;99.90
4755;DHT22;2391;47.212;7.542;2023-01-06T13:53:58;10.20;99.90
4755;DHT22;2391;47.212;7.542;2023-01-06T13:56:34;10.20;99.90
4755;DHT22;2391;47.212;7.542;2023-01-06T13:59:22;10.30;99.90
4755;DHT22;2391;47.212;7.542;2023-01-06T14:01:45;10.30;99.90
4755;DHT22;2391;47.212;7.542;2023-01-06T14:07:05;10.30;99.90
4755;DHT22;2391;47.212;7.542;2023-01-06T14:09:33;10.30;99.90
4755;DHT22;2391;47.212;7.542;2023-01-06T14:12:15;10.20;99.90
4755;DHT22;2391;47.212;7.542;2023-01-06T14:14:38;10.10;99.90
4755;DHT22;2391;47.212;7.542;2023-01-06T14:17:04;10.10;99.90
4755;DHT22;2391;47.212;7.542;2023-01-06T14:19:32;10.00;99.90
4755;DHT22;2391;47.212;7.542;2023-01-06T14:22:19;9.90;99.90
4755;DHT22;2391;47.212;7.542;2023-01-06T14:25:01;9.90;99.90
4755;DHT22;2391;47.212;7.542;2023-01-06T14:30:24;9.90;99.90
4755;DHT22;2391;47.212;7.542;2023-01-06T14:35:24;10.10;99.90
4755;DHT22;2391;47.212;7.542;2023-01-06T14:38:04;10.10;99.90
4755;DHT22;2391;47.212;7.542;2023-01-06T14:40:38;10.20;99.90
4755;DHT22;2391;47.212;7.542;2023-01-06T14:43:30;10.20;99.90
4755;DHT22;2391;47.212;7.542;2023-01-06T14:45:57;10.30;99.90
4755;DHT22;2391;47.212;7.542;2023-01-06T14:48:26;10.40;99.90
4755;DHT22;2391;47.212;7.542;2023-01-06T14:50:54;10.40;99.90
4755;DHT22;2391;47.212;7.542;2023-01-06T14:53:40;10.40;99.90
4755;DHT22;2391;47.212;7.542;2023-01-06T14:56:16;10.30;99.90
4755;DHT22;2391;47.212;7.542;2023-01-06T14:58:43;10.40;99.90
4755;DHT22;2391;47.212;7.542;2023-01-06T15:01:27;10.40;99.90
4755;DHT22;2391;47.212;7.542;2023-01-06T15:03:57;10.50;99.90
4755;DHT22;2391;47.212;7.542;2023-01-06T15:06:25;10.60;99.90
4755;DHT22;2391;47.212;7.542;2023-01-06T15:08:52;10.60;99.90
4755;DHT22;2391;47.212;7.542;2023-01-06T15:11:30;10.70;99.90
4755;DHT22;2391;47.212;7.542;2023-01-06T15:13:57;10.70;99.90
4755;DHT22;2391;47.212;7.542;2023-01-06T15:18:53;10.80;99.90
4755;DHT22;2391;47.212;7.542;2023-01-06T15:21:20;10.80;99.90
4755;DHT22;2391;47.212;7.542;2023-01-06T15:23:48;10.80;99.90
4755;DHT22;2391;47.212;7.542;2023-01-06T15:26:18;10.80;99.90
4755;DHT22;2391;47.212;7.542;2023-01-06T15:29:02;10.80;99.90
4755;DHT22;2391;47.212;7.542;2023-01-06T15:31:31;10.70;99.90
4755;DHT22;2391;47.212;7.542;2023-01-06T15:33:58;10.70;99.90
4755;DHT22;2391;47.212;7.542;2023-01-06T15:36:24;10.70;99.90
4755;DHT22;2391;47.212;7.542;2023-01-06T15:38:52;10.70;99.90
4755;DHT22;2391;47.212;7.542;2023-01-06T15:41:20;10.60;99.90
4755;DHT22;2391;47.212;7.542;2023-01-06T15:46:54;10.60;99.90
4755;DHT22;2391;47.212;7.542;2023-01-06T15:49:26;10.60;99.90
4755;DHT22;2391;47.212;7.542;2023-01-06T15:51:55;10.60;99.90
4755;DHT22;2391;47.212;7.542;2023-01-06T15:54:22;10.60;99.90
4755;DHT22;2391;47.212;7.542;2023-01-06T15:56:49;10.60;99.90
4755;DHT22;2391;47.212;7.542;2023-01-06T15:59:14;10.60;99.90
4755;DHT22;2391;47.212;7.542;2023-01-06T16:01:52;10.60;99.90
4755;DHT22;2391;47.212;7.542;2023-01-06T16:04:19;10.60;99.90
4755;DHT22;2391;47.212;7.542;2023-01-06T16:06:45;10.60;99.90
4755;DHT22;2391;47.212;7.542;2023-01-06T16:11:58;10.60;99.90
4755;DHT22;2391;47.212;7.542;2023-01-06T16:16:59;10.60;99.90
4755;DHT22;2391;47.212;7.542;2023-01-06T16:19:26;10.70;99.90
4755;DHT22;2391;47.212;7.542;2023-01-06T16:21:53;10.70;99.90
4755;DHT22;2391;47.212;7.542;2023-01-06T16:24:23;10.70;99.90
4755;DHT22;2391;47.212;7.542;2023-01-06T16:27:02;10.80;99.90
4755;DHT22;2391;47.212;7.542;2023-01-06T16:29:31;10.80;99.90
4755;DHT22;2391;47.212;7.542;2023-01-06T16:32:19;10.90;99.90
4755;DHT22;2391;47.212;7.542;2023-01-06T16:34:49;10.90;99.90
4755;DHT22;2391;47.212;7.542;2023-01-06T16:37:16;10.90;99.90
4755;DHT22;2391;47.212;7.542;2023-01-06T16:39:41;10.90;99.90
4755;DHT22;2391;47.212;7.542;2023-01-06T16:45:00;10.90;99.90
4755;DHT22;2391;47.212;7.542;2023-01-06T16:47:27;10.90;99.90
4755;DHT22;2391;47.212;7.542;2023-01-06T16:49:53;10.80;99.90
4755;DHT22;2391;47.212;7.542;2023-01-06T16:52:18;10.70;99.90
4755;DHT22;2391;47.212;7.542;2023-01-06T16:54:46;10.60;99.90
4755;DHT22;2391;47.212;7.542;2023-01-06T16:57:14;10.60;99.90
4755;DHT22;2391;47.212;7.542;2023-01-06T16:59:39;10.60;99.90
4755;DHT22;2391;47.212;7.542;2023-01-06T17:02:16;10.70;99.90
4755;DHT22;2391;47.212;7.542;2023-01-06T17:04:44;10.70;99.90
4755;DHT22;2391;47.212;7.542;2023-01-06T17:07:14;10.80;99.90
4755;DHT22;2391;47.212;7.542;2023-01-06T17:09:41;10.80;99.90
4755;DHT22;2391;47.212;7.542;2023-01-06T17:12:13;10.80;99.90
4755;DHT22;2391;47.212;7.542;2023-01-06T17:14:43;10.90;99.90
4755;DHT22;2391;47.212;7.542;2023-01-06T17:17:19;10.90;99.90
4755;DHT22;2391;47.212;7.542;2023-01-06T17:19:40;10.90;99.90
4755;DHT22;2391;47.212;7.542;2023-01-06T17:22:27;10.90;99.90
4755;DHT22;2391;47.212;7.542;2023-01-06T17:24:56;11.00;99.90
4755;DHT22;2391;47.212;7.542;2023-01-06T17:27:28;11.00;99.90
4755;DHT22;2391;47.212;7.542;2023-01-06T17:29:59;11.00;99.90
4755;DHT22;2391;47.212;7.542;2023-01-06T17:34:56;11.10;99.90
4755;DHT22;2391;47.212;7.542;2023-01-06T17:37:24;11.10;99.90
4755;DHT22;2391;47.212;7.542;2023-01-06T17:39:50;11.10;99.90
4755;DHT22;2391;47.212;7.542;2023-01-06T17:42:22;11.10;99.90
4755;DHT22;2391;47.212;7.542;2023-01-06T17:44:52;11.10;99.90
4755;DHT22;2391;47.212;7.542;2023-01-06T17:49:50;11.20;99.90
4755;DHT22;2391;47.212;7.542;2023-01-06T17:52:30;11.20;99.90
4755;DHT22;2391;47.212;7.542;2023-01-06T17:55:00;11.20;99.90
4755;DHT22;2391;47.212;7.542;2023-01-06T17:57:44;11.30;99.90
4755;DHT22;2391;47.212;7.542;2023-01-06T18:00:33;11.20;99.90
4755;DHT22;2391;47.212;7.542;2023-01-06T18:03:09;11.30;99.90
4755;DHT22;2391;47.212;7.542;2023-01-06T18:10:35;11.20;99.90
4755;DHT22;2391;47.212;7.542;2023-01-06T18:13:13;11.20;99.90
4755;DHT22;2391;47.212;7.542;2023-01-06T18:15:40;11.20;99.90
4755;DHT22;2391;47.212;7.542;2023-01-06T18:18:21;11.20;99.90
4755;DHT22;2391;47.212;7.542;2023-01-06T18:20:50;11.30;99.90
4755;DHT22;2391;47.212;7.542;2023-01-06T18:23:17;11.30;99.90
4755;DHT22;2391;47.212;7.542;2023-01-06T18:25:43;11.30;99.90
4755;DHT22;2391;47.212;7.542;2023-01-06T18:28:14;11.30;99.90
4755;DHT22;2391;47.212;7.542;2023-01-06T18:30:41;11.30;99.90
4755;DHT22;2391;47.212;7.542;2023-01-06T18:33:15;11.30;99.90
4755;DHT22;2391;47.212;7.542;2023-01-06T18:35:42;11.30;99.90
4755;DHT22;2391;47.212;7.542;2023-01-06T18:38:08;11.30;99.90
4755;DHT22;2391;47.212;7.542;2023-01-06T18:40:36;11.40;99.90
4755;DHT22;2391;47.212;7.542;2023-01-06T18:43:27;11.40;99.90
4755;DHT22;2391;47.212;7.542;2023-01-06T18:45:56;11.30;99.90
4755;DHT22;2391;47.212;7.542;2023-01-06T18:48:32;11.30;99.90
4755;DHT22;2391;47.212;7.542;2023-01-06T18:51:05;11.30;99.90
4755;DHT22;2391;47.212;7.542;2023-01-06T18:53:42;11.30;99.90
4755;DHT22;2391;47.212;7.542;2023-01-06T18:58:48;11.30;99.90
4755;DHT22;2391;47.212;7.542;2023-01-06T19:04:02;11.30;99.90
4755;DHT22;2391;47.212;7.542;2023-01-06T19:06:40;11.30;99.90
4755;DHT22;2391;47.212;7.542;2023-01-06T19:11:38;11.30;99.90
4755;DHT22;2391;47.212;7.542;2023-01-06T19:14:05;11.30;99.90
4755;DHT22;2391;47.212;7.542;2023-01-06T19:19:17;11.20;99.90
4755;DHT22;2391;47.212;7.542;2023-01-06T19:21:40;11.20;99.90